sensor_id;sensor_type;location;lat;lon;timestamp;pressure;altitude;pressure_sealevel;temperature;humidity
10470;BME280;5282;47.052;15.458;2023-07-30T00:00:36;97349.63;;;18.55;100.00
10470;BME280;5282;47.052;15.458;2023-07-30T00:03:03;97351.97;;;18.51;100.00
10470;BME280;5282;47.052;15.458;2023-07-30T00:05:30;97359.28;;;18.50;100.00
10470;BME280;5282;47.052;15.458;2023-07-30T00:07:57;97355.19;;;18.41;100.00
10470;BME280;5282;47.052;15.458;2023-07-30T00:10:24;97350.78;;;18.40;100.00
10470;BME280;5282;47.052;15.458;2023-07-30T00:12:52;97342.00;;;18.38;100.00
10470;BME280;5282;47.052;15.458;2023-07-30T00:15:19;97343.84;;;18.44;100.00
10470;BME280;5282;47.052;15.458;2023-07-30T00:17:46;97332.94;;;18.44;100.00
10470;BME280;5282;47.052;15.458;2023-07-30T00:20:13;97333.94;;;18.50;100.00
10470;BME280;5282;47.052;15.458;2023-07-30T00:22:40;97322.81;;;18.52;100.00
10470;BME280;5282;47.052;15.458;2023-07-30T00:25:07;97322.81;;;18.52;100.00
10470;BME280;5282;47.052;15.458;2023-07-30T00:27:35;97320.06;;;18.52;100.00
10470;BME280;5282;47.052;15.458;2023-07-30T00:30:04;97316.13;;;18.47;100.00
10470;BME280;5282;47.052;15.458;2023-07-30T00:32:32;97313.97;;;18.31;100.00
10470;BME280;5282;47.052;15.458;2023-07-30T00:34:59;97320.53;;;18.23;100.00
10470;BME280;5282;47.052;15.458;2023-07-30T00:37:26;97315.13;;;18.42;100.00
10470;BME280;5282;47.052;15.458;2023-07-30T00:39:53;97323.09;;;18.43;100.00
10470;BME280;5282;47.052;15.458;2023-07-30T00:42:20;97330.28;;;18.38;100.00
10470;BME280;5282;47.052;15.458;2023-07-30T00:44:46;97329.09;;;18.27;100.00
10470;BME280;5282;47.052;15.458;2023-07-30T00:47:15;97322.19;;;18.49;100.00
10470;BME280;5282;47.052;15.458;2023-07-30T00:49:42;97313.88;;;18.44;100.00
10470;BME280;5282;47.052;15.458;2023-07-30T00:52:08;97312.19;;;18.43;100.00
10470;BME280;5282;47.052;15.458;2023-07-30T00:54:38;97320.63;;;18.35;100.00
10470;BME280;5282;47.052;15.458;2023-07-30T00:57:06;97329.75;;;18.22;100.00
10470;BME280;5282;47.052;15.458;2023-07-30T00:59:33;97323.91;;;18.18;100.00
10470;BME280;5282;47.052;15.458;2023-07-30T01:02:00;97326.22;;;18.22;100.00
10470;BME280;5282;47.052;15.458;2023-07-30T01:04:30;97307.69;;;18.30;100.00
10470;BME280;5282;47.052;15.458;2023-07-30T01:07:01;97306.41;;;18.33;100.00
10470;BME280;5282;47.052;15.458;2023-07-30T01:09:33;97310.69;;;18.22;100.00
10470;BME280;5282;47.052;15.458;2023-07-30T01:12:02;97314.84;;;18.25;100.00
10470;BME280;5282;47.052;15.458;2023-07-30T01:14:29;97320.75;;;18.22;100.00
10470;BME280;5282;47.052;15.458;2023-07-30T01:16:58;97322.50;;;18.16;100.00
10470;BME280;5282;47.052;15.458;2023-07-30T01:19:25;97331.53;;;18.10;100.00
10470;BME280;5282;47.052;15.458;2023-07-30T01:21:53;97332.97;;;18.12;100.00
10470;BME280;5282;47.052;15.458;2023-07-30T01:24:20;97322.03;;;18.19;100.00
10470;BME280;5282;47.052;15.458;2023-07-30T01:26:50;97327.66;;;18.24;100.00
10470;BME280;5282;47.052;15.458;2023-07-30T01:29:22;97326.16;;;18.28;100.00
10470;BME280;5282;47.052;15.458;2023-07-30T01:31:55;97324.88;;;18.31;100.00
10470;BME280;5282;47.052;15.458;2023-07-30T01:34:23;97324.44;;;18.34;100.00
10470;BME280;5282;47.052;15.458;2023-07-30T01:36:53;97321.72;;;18.34;100.00
10470;BME280;5282;47.052;15.458;2023-07-30T01:39:20;97329.09;;;18.27;100.00
10470;BME280;5282;47.052;15.458;2023-07-30T01:41:47;97336.22;;;18.28;100.00
10470;BME280;5282;47.052;15.458;2023-07-30T01:44:14;97326.50;;;18.39;100.00
10470;BME280;5282;47.052;15.458;2023-07-30T01:46:41;97329.41;;;18.37;100.00
10470;BME280;5282;47.052;15.458;2023-07-30T01:49:08;97333.06;;;18.31;100.00
10470;BME280;5282;47.052;15.458;2023-07-30T01:51:35;97340.84;;;18.27;100.00
10470;BME280;5282;47.052;15.458;2023-07-30T01:54:03;97334.50;;;18.33;100.00
10470;BME280;5282;47.052;15.458;2023-07-30T01:56:30;97340.84;;;18.27;100.00
10470;BME280;5282;47.052;15.458;2023-07-30T01:58:57;97351.75;;;18.27;100.00
10470;BME280;5282;47.052;15.458;2023-07-30T02:01:24;97354.47;;;18.27;100.00
10470;BME280;5282;47.052;15.458;2023-07-30T02:03:51;97354.63;;;18.32;100.00
10470;BME280;5282;47.052;15.458;2023-07-30T02:06:18;97348.78;;;18.29;100.00
10470;BME280;5282;47.052;15.458;2023-07-30T02:08:45;97352.13;;;18.31;100.00
10470;BME280;5282;47.052;15.458;2023-07-30T02:11:13;97349.41;;;18.31;100.00
10470;BME280;5282;47.052;15.458;2023-07-30T02:13:40;97354.47;;;18.27;100.00
10470;BME280;5282;47.052;15.458;2023-07-30T02:16:08;97338.41;;;18.12;100.00
10470;BME280;5282;47.052;15.458;2023-07-30T02:18:36;97341.13;;;18.12;100.00
10470;BME280;5282;47.052;15.458;2023-07-30T02:21:07;97340.28;;;18.18;100.00
10470;BME280;5282;47.052;15.458;2023-07-30T02:23:34;97337.13;;;18.22;100.00
10470;BME280;5282;47.052;15.458;2023-07-30T02:26:01;97330.38;;;18.24;100.00
10470;BME280;5282;47.052;15.458;2023-07-30T02:28:29;97324.06;;;18.24;100.00
10470;BME280;5282;47.052;15.458;2023-07-30T02:30:58;97326.69;;;18.12;100.00
10470;BME280;5282;47.052;15.458;2023-07-30T02:33:27;97327.38;;;18.07;100.00
10470;BME280;5282;47.052;15.458;2023-07-30T02:35:54;97332.63;;;18.02;100.00
10470;BME280;5282;47.052;15.458;2023-07-30T02:38:21;97319.63;;;18.04;100.00
10470;BME280;5282;47.052;15.458;2023-07-30T02:40:48;97315.22;;;18.03;100.00
10470;BME280;5282;47.052;15.458;2023-07-30T02:43:15;97330.31;;;18.06;100.00
10470;BME280;5282;47.052;15.458;2023-07-30T02:45:46;97316.91;;;18.04;100.00
10470;BME280;5282;47.052;15.458;2023-07-30T02:48:13;97324.03;;;18.05;100.00
10470;BME280;5282;47.052;15.458;2023-07-30T02:50:41;97318.56;;;18.05;100.00
10470;BME280;5282;47.052;15.458;2023-07-30T02:53:07;97333.88;;;18.06;100.00
10470;BME280;5282;47.052;15.458;2023-07-30T02:55:35;97329.25;;;18.07;100.00
10470;BME280;5282;47.052;15.458;2023-07-30T02:58:02;97340.13;;;18.07;100.00
10470;BME280;5282;47.052;15.458;2023-07-30T03:00:29;97342.66;;;18.08;100.00
10470;BME280;5282;47.052;15.458;2023-07-30T03:02:57;97343.28;;;18.10;100.00
10470;BME280;5282;47.052;15.458;2023-07-30T03:05:24;97338.66;;;18.11;100.00
10470;BME280;5282;47.052;15.458;2023-07-30T03:07:52;97349.78;;;18.09;100.00
10470;BME280;5282;47.052;15.458;2023-07-30T03:10:20;97355.00;;;18.11;100.00
10470;BME280;5282;47.052;15.458;2023-07-30T03:12:46;97352.03;;;18.12;100.00
10470;BME280;5282;47.052;15.458;2023-07-30T03:15:13;97354.75;;;18.12;100.00
10470;BME280;5282;47.052;15.458;2023-07-30T03:17:40;97357.91;;;18.16;100.00
10470;BME280;5282;47.052;15.458;2023-07-30T03:20:09;97356.84;;;18.17;100.00
10470;BME280;5282;47.052;15.458;2023-07-30T03:22:36;97375.06;;;18.16;100.00
10470;BME280;5282;47.052;15.458;2023-07-30T03:25:04;97368.34;;;18.19;100.00
10470;BME280;5282;47.052;15.458;2023-07-30T03:27:30;97364.78;;;18.18;100.00
10470;BME280;5282;47.052;15.458;2023-07-30T03:29:57;97358.28;;;18.19;100.00
10470;BME280;5282;47.052;15.458;2023-07-30T03:32:24;97359.09;;;18.20;100.00
10470;BME280;5282;47.052;15.458;2023-07-30T03:34:51;97357.25;;;18.21;100.00
10470;BME280;5282;47.052;15.458;2023-07-30T03:37:20;97355.56;;;18.19;100.00
10470;BME280;5282;47.052;15.458;2023-07-30T03:39:46;97358.50;;;18.18;100.00
10470;BME280;5282;47.052;15.458;2023-07-30T03:42:13;97356.84;;;18.17;100.00
10470;BME280;5282;47.052;15.458;2023-07-30T03:44:40;97351.41;;;18.17;100.00
10470;BME280;5282;47.052;15.458;2023-07-30T03:47:07;97348.88;;;18.15;100.00
10470;BME280;5282;47.052;15.458;2023-07-30T03:49:34;97353.50;;;18.15;100.00
10470;BME280;5282;47.052;15.458;2023-07-30T03:52:01;97355.84;;;18.11;100.00
10470;BME280;5282;47.052;15.458;2023-07-30T03:54:31;97354.56;;;18.14;100.00
10470;BME280;5282;47.052;15.458;2023-07-30T03:56:58;97352.66;;;18.14;100.00
10470;BME280;5282;47.052;15.458;2023-07-30T03:59:26;97359.34;;;18.18;100.00
10470;BME280;5282;47.052;15.458;2023-07-30T04:01:54;97351.44;;;18.10;100.00
10470;BME280;5282;47.052;15.458;2023-07-30T04:04:20;97355.84;;;18.11;100.00
10470;BME280;5282;47.052;15.458;2023-07-30T04:06:47;97346.19;;;18.09;100.00
10470;BME280;5282;47.052;15.458;2023-07-30T04:09:14;97347.91;;;18.03;100.00
10470;BME280;5282;47.052;15.458;2023-07-30T04:11:42;97360.72;;;18.02;100.00
10470;BME280;5282;47.052;15.458;2023-07-30T04:14:09;97354.41;;;18.02;100.00
10470;BME280;5282;47.052;15.458;2023-07-30T04:16:38;97349.16;;;18.07;100.00
10470;BME280;5282;47.052;15.458;2023-07-30T04:19:05;97357.38;;;18.00;100.00
10470;BME280;5282;47.052;15.458;2023-07-30T04:21:32;97346.91;;;17.97;100.00
10470;BME280;5282;47.052;15.458;2023-07-30T04:23:59;97344.63;;;17.94;100.00
10470;BME280;5282;47.052;15.458;2023-07-30T04:26:27;97349.03;;;17.88;100.00
10470;BME280;5282;47.052;15.458;2023-07-30T04:28:56;97348.19;;;17.88;100.00
10470;BME280;5282;47.052;15.458;2023-07-30T04:31:23;97349.25;;;17.87;100.00
10470;BME280;5282;47.052;15.458;2023-07-30T04:33:50;97355.53;;;17.87;100.00
10470;BME280;5282;47.052;15.458;2023-07-30T04:36:16;97351.78;;;17.88;100.00
10470;BME280;5282;47.052;15.458;2023-07-30T04:38:43;97341.75;;;17.82;100.00
10470;BME280;5282;47.052;15.458;2023-07-30T04:41:10;97346.56;;;17.80;100.00
10470;BME280;5282;47.052;15.458;2023-07-30T04:43:37;97336.53;;;17.81;100.00
10470;BME280;5282;47.052;15.458;2023-07-30T04:46:05;97330.22;;;17.80;100.00
10470;BME280;5282;47.052;15.458;2023-07-30T04:48:32;97326.88;;;17.78;100.00
10470;BME280;5282;47.052;15.458;2023-07-30T04:51:02;97325.63;;;17.81;100.00
10470;BME280;5282;47.052;15.458;2023-07-30T04:53:29;97321.00;;;17.81;100.00
10470;BME280;5282;47.052;15.458;2023-07-30T04:55:56;97308.00;;;17.83;100.00
10470;BME280;5282;47.052;15.458;2023-07-30T04:58:23;97323.56;;;17.76;100.00
10470;BME280;5282;47.052;15.458;2023-07-30T05:00:50;97327.97;;;17.77;100.00
10470;BME280;5282;47.052;15.458;2023-07-30T05:03:18;97328.34;;;17.81;100.00
10470;BME280;5282;47.052;15.458;2023-07-30T05:05:45;97325.63;;;17.81;100.00
10470;BME280;5282;47.052;15.458;2023-07-30T05:08:12;97326.06;;;17.78;100.00
10470;BME280;5282;47.052;15.458;2023-07-30T05:10:41;97325.16;;;17.84;100.00
10470;BME280;5282;47.052;15.458;2023-07-30T05:13:07;97324.34;;;17.83;100.00
10470;BME280;5282;47.052;15.458;2023-07-30T05:15:35;97327.25;;;17.88;100.00
10470;BME280;5282;47.052;15.458;2023-07-30T05:18:04;97314.69;;;17.87;100.00
10470;BME280;5282;47.052;15.458;2023-07-30T05:20:32;97312.19;;;17.86;100.00
10470;BME280;5282;47.052;15.458;2023-07-30T05:22:59;97311.13;;;17.87;100.00
10470;BME280;5282;47.052;15.458;2023-07-30T05:25:27;97320.16;;;17.87;100.00
10470;BME280;5282;47.052;15.458;2023-07-30T05:27:55;97307.78;;;17.85;100.00
10470;BME280;5282;47.052;15.458;2023-07-30T05:30:21;97315.75;;;17.86;100.00
10470;BME280;5282;47.052;15.458;2023-07-30T05:32:48;97315.13;;;17.84;100.00
10470;BME280;5282;47.052;15.458;2023-07-30T05:35:15;97313.84;;;17.87;100.00
10470;BME280;5282;47.052;15.458;2023-07-30T05:37:45;97319.28;;;17.87;100.00
10470;BME280;5282;47.052;15.458;2023-07-30T05:40:12;97328.31;;;17.87;100.00
10470;BME280;5282;47.052;15.458;2023-07-30T05:42:39;97322.88;;;17.87;100.00
10470;BME280;5282;47.052;15.458;2023-07-30T05:45:09;97321.16;;;17.93;100.00
10470;BME280;5282;47.052;15.458;2023-07-30T05:47:36;97327.66;;;17.92;100.00
10470;BME280;5282;47.052;15.458;2023-07-30T05:50:03;97330.16;;;17.94;100.00
10470;BME280;5282;47.052;15.458;2023-07-30T05:52:30;97338.16;;;17.88;100.00
10470;BME280;5282;47.052;15.458;2023-07-30T05:55:01;97341.50;;;17.84;100.00
10470;BME280;5282;47.052;15.458;2023-07-30T05:57:31;97335.63;;;17.87;100.00
10470;BME280;5282;47.052;15.458;2023-07-30T05:59:57;97336.03;;;17.91;100.00
10470;BME280;5282;47.052;15.458;2023-07-30T06:02:24;97343.34;;;17.97;100.00
10470;BME280;5282;47.052;15.458;2023-07-30T06:04:51;97344.56;;;18.01;100.00
10470;BME280;5282;47.052;15.458;2023-07-30T06:07:18;97349.19;;;18.00;100.00
10470;BME280;5282;47.052;15.458;2023-07-30T06:09:45;97346.03;;;18.03;100.00
10470;BME280;5282;47.052;15.458;2023-07-30T06:12:13;97344.72;;;18.13;100.00
10470;BME280;5282;47.052;15.458;2023-07-30T06:14:39;97341.22;;;18.31;100.00
10470;BME280;5282;47.052;15.458;2023-07-30T06:17:06;97347.72;;;18.30;100.00
10470;BME280;5282;47.052;15.458;2023-07-30T06:19:33;97352.78;;;18.26;100.00
10470;BME280;5282;47.052;15.458;2023-07-30T06:22:00;97361.19;;;18.50;100.00
10470;BME280;5282;47.052;15.458;2023-07-30T06:24:26;97369.59;;;18.48;100.00
10470;BME280;5282;47.052;15.458;2023-07-30T06:26:53;97380.59;;;18.35;100.00
10470;BME280;5282;47.052;15.458;2023-07-30T06:29:23;97381.88;;;18.32;100.00
10470;BME280;5282;47.052;15.458;2023-07-30T06:31:50;97369.75;;;18.28;100.00
10470;BME280;5282;47.052;15.458;2023-07-30T06:34:17;97373.06;;;18.30;100.00
10470;BME280;5282;47.052;15.458;2023-07-30T06:36:43;97374.41;;;18.46;100.00
10470;BME280;5282;47.052;15.458;2023-07-30T06:39:10;97363.13;;;18.68;100.00
10470;BME280;5282;47.052;15.458;2023-07-30T06:41:37;97360.97;;;18.52;100.00
10470;BME280;5282;47.052;15.458;2023-07-30T06:44:04;97372.59;;;18.40;100.00
10470;BME280;5282;47.052;15.458;2023-07-30T06:46:32;97380.16;;;18.38;100.00
10470;BME280;5282;47.052;15.458;2023-07-30T06:48:59;97368.56;;;18.17;100.00
10470;BME280;5282;47.052;15.458;2023-07-30T06:51:26;97369.91;;;18.33;100.00
10470;BME280;5282;47.052;15.458;2023-07-30T06:53:53;97370.31;;;18.37;100.00
10470;BME280;5282;47.052;15.458;2023-07-30T06:56:20;97371.16;;;18.38;100.00
10470;BME280;5282;47.052;15.458;2023-07-30T06:58:47;97373.03;;;18.37;100.00
10470;BME280;5282;47.052;15.458;2023-07-30T07:01:13;97372.59;;;18.40;100.00
10470;BME280;5282;47.052;15.458;2023-07-30T07:03:42;97370.91;;;18.39;100.00
10470;BME280;5282;47.052;15.458;2023-07-30T07:06:08;97363.50;;;18.46;100.00
10470;BME280;5282;47.052;15.458;2023-07-30T07:08:35;97363.06;;;18.49;100.00
10470;BME280;5282;47.052;15.458;2023-07-30T07:11:02;97364.69;;;18.57;100.00
10470;BME280;5282;47.052;15.458;2023-07-30T07:13:29;97377.59;;;18.69;100.00
10470;BME280;5282;47.052;15.458;2023-07-30T07:15:56;97370.41;;;18.74;100.00
10470;BME280;5282;47.052;15.458;2023-07-30T07:18:23;97374.75;;;18.82;100.00
10470;BME280;5282;47.052;15.458;2023-07-30T07:20:51;97359.97;;;19.15;100.00
10470;BME280;5282;47.052;15.458;2023-07-30T07:23:18;97346.31;;;19.15;100.00
10470;BME280;5282;47.052;15.458;2023-07-30T07:25:45;97351.31;;;19.18;100.00
10470;BME280;5282;47.052;15.458;2023-07-30T07:28:12;97363.34;;;19.29;100.00
10470;BME280;5282;47.052;15.458;2023-07-30T07:30:39;97352.00;;;19.32;100.00
10470;BME280;5282;47.052;15.458;2023-07-30T07:33:05;97339.56;;;19.36;100.00
10470;BME280;5282;47.052;15.458;2023-07-30T07:35:34;97339.56;;;19.18;100.00
10470;BME280;5282;47.052;15.458;2023-07-30T07:38:02;97353.94;;;19.43;100.00
10470;BME280;5282;47.052;15.458;2023-07-30T07:40:36;97337.13;;;19.47;100.00
10470;BME280;5282;47.052;15.458;2023-07-30T07:43:07;97343.16;;;19.67;100.00
10470;BME280;5282;47.052;15.458;2023-07-30T07:45:34;97330.56;;;19.66;100.00
10470;BME280;5282;47.052;15.458;2023-07-30T07:48:02;97329.25;;;19.69;100.00
10470;BME280;5282;47.052;15.458;2023-07-30T07:50:29;97322.03;;;19.74;100.00
10470;BME280;5282;47.052;15.458;2023-07-30T07:52:55;97329.66;;;19.72;100.00
10470;BME280;5282;47.052;15.458;2023-07-30T07:55:24;97336.59;;;19.87;100.00
10470;BME280;5282;47.052;15.458;2023-07-30T07:57:50;97330.22;;;19.93;100.00
10470;BME280;5282;47.052;15.458;2023-07-30T08:00:17;97297.09;;;19.90;100.00
10470;BME280;5282;47.052;15.458;2023-07-30T08:02:44;97313.53;;;20.25;100.00
10470;BME280;5282;47.052;15.458;2023-07-30T08:05:11;97322.13;;;20.53;100.00
10470;BME280;5282;47.052;15.458;2023-07-30T08:07:38;97322.59;;;20.73;100.00
10470;BME280;5282;47.052;15.458;2023-07-30T08:10:06;97321.53;;;20.98;100.00
10470;BME280;5282;47.052;15.458;2023-07-30T08:12:34;97328.94;;;20.98;100.00
10470;BME280;5282;47.052;15.458;2023-07-30T08:15:04;97322.72;;;21.02;100.00
10470;BME280;5282;47.052;15.458;2023-07-30T08:17:32;97312.38;;;21.04;100.00
10470;BME280;5282;47.052;15.458;2023-07-30T08:19:59;97317.59;;;21.06;100.00
10470;BME280;5282;47.052;15.458;2023-07-30T08:22:26;97310.84;;;20.96;100.00
10470;BME280;5282;47.052;15.458;2023-07-30T08:24:55;97312.97;;;20.83;100.00
10470;BME280;5282;47.052;15.458;2023-07-30T08:27:22;97310.75;;;20.79;100.00
10470;BME280;5282;47.052;15.458;2023-07-30T08:29:50;97314.28;;;21.04;100.00
10470;BME280;5282;47.052;15.458;2023-07-30T08:32:17;97303.53;;;21.26;100.00
10470;BME280;5282;47.052;15.458;2023-07-30T08:34:44;97292.78;;;21.36;100.00
10470;BME280;5282;47.052;15.458;2023-07-30T08:37:11;97291.13;;;21.35;100.00
10470;BME280;5282;47.052;15.458;2023-07-30T08:39:37;97280.97;;;21.36;100.00
10470;BME280;5282;47.052;15.458;2023-07-30T08:42:04;97283.44;;;21.20;100.00
10470;BME280;5282;47.052;15.458;2023-07-30T08:44:31;97284.50;;;21.48;100.00
10470;BME280;5282;47.052;15.458;2023-07-30T08:46:59;97284.09;;;21.68;100.00
10470;BME280;5282;47.052;15.458;2023-07-30T08:49:26;97279.84;;;21.90;100.00
10470;BME280;5282;47.052;15.458;2023-07-30T08:54:26;97277.50;;;21.98;100.00
10470;BME280;5282;47.052;15.458;2023-07-30T08:56:56;97270.19;;;22.04;100.00
10470;BME280;5282;47.052;15.458;2023-07-30T08:59:24;97273.13;;;22.14;100.00
10470;BME280;5282;47.052;15.458;2023-07-30T09:01:52;97281.09;;;21.99;100.00
10470;BME280;5282;47.052;15.458;2023-07-30T09:04:21;97281.09;;;22.16;100.00
10470;BME280;5282;47.052;15.458;2023-07-30T09:06:49;97285.75;;;22.49;100.00
10470;BME280;5282;47.052;15.458;2023-07-30T09:09:16;97284.59;;;22.62;100.00
10470;BME280;5282;47.052;15.458;2023-07-30T09:11:43;97293.78;;;22.73;100.00
10470;BME280;5282;47.052;15.458;2023-07-30T09:14:10;97280.75;;;22.80;100.00
10470;BME280;5282;47.052;15.458;2023-07-30T09:16:36;97288.44;;;22.84;100.00
10470;BME280;5282;47.052;15.458;2023-07-30T09:19:05;97287.00;;;22.98;100.00
10470;BME280;5282;47.052;15.458;2023-07-30T09:21:34;97284.34;;;23.25;100.00
10470;BME280;5282;47.052;15.458;2023-07-30T09:24:02;97277.00;;;23.53;100.00
10470;BME280;5282;47.052;15.458;2023-07-30T09:26:40;97275.06;;;23.54;100.00
10470;BME280;5282;47.052;15.458;2023-07-30T09:29:08;97274.75;;;23.50;100.00
10470;BME280;5282;47.052;15.458;2023-07-30T09:31:45;97275.81;;;23.44;100.00
10470;BME280;5282;47.052;15.458;2023-07-30T09:34:15;97267.88;;;23.48;100.00
10470;BME280;5282;47.052;15.458;2023-07-30T09:36:44;97278.16;;;23.35;100.00
10470;BME280;5282;47.052;15.458;2023-07-30T09:39:16;97264.56;;;23.46;100.00
10470;BME280;5282;47.052;15.458;2023-07-30T09:41:44;97264.84;;;23.71;100.00
10470;BME280;5282;47.052;15.458;2023-07-30T09:44:11;97256.69;;;23.82;100.00
10470;BME280;5282;47.052;15.458;2023-07-30T09:46:45;97259.63;;;23.97;100.00
10470;BME280;5282;47.052;15.458;2023-07-30T09:49:13;97256.31;;;24.00;100.00
10470;BME280;5282;47.052;15.458;2023-07-30T09:51:40;97253.19;;;24.19;100.00
10470;BME280;5282;47.052;15.458;2023-07-30T09:54:10;97248.13;;;24.43;100.00
10470;BME280;5282;47.052;15.458;2023-07-30T09:56:38;97251.69;;;24.76;100.00
10470;BME280;5282;47.052;15.458;2023-07-30T09:59:05;97250.91;;;24.86;100.00
10470;BME280;5282;47.052;15.458;2023-07-30T10:01:37;97249.41;;;24.68;100.00
10470;BME280;5282;47.052;15.458;2023-07-30T10:04:08;97255.63;;;24.91;100.00
10470;BME280;5282;47.052;15.458;2023-07-30T10:06:37;97243.78;;;24.95;100.00
10470;BME280;5282;47.052;15.458;2023-07-30T10:09:08;97241.66;;;25.08;100.00
10470;BME280;5282;47.052;15.458;2023-07-30T10:11:38;97242.38;;;25.46;100.00
10470;BME280;5282;47.052;15.458;2023-07-30T10:14:06;97234.66;;;25.53;100.00
10470;BME280;5282;47.052;15.458;2023-07-30T10:16:33;97233.44;;;25.13;100.00
10470;BME280;5282;47.052;15.458;2023-07-30T10:19:01;97231.28;;;25.36;100.00
10470;BME280;5282;47.052;15.458;2023-07-30T10:21:28;97225.22;;;25.39;100.00
10470;BME280;5282;47.052;15.458;2023-07-30T10:24:02;97228.03;;;25.44;100.00
10470;BME280;5282;47.052;15.458;2023-07-30T10:26:32;97228.09;;;25.75;100.00
10470;BME280;5282;47.052;15.458;2023-07-30T10:29:15;97225.38;;;26.22;100.00
10470;BME280;5282;47.052;15.458;2023-07-30T10:31:43;97225.63;;;26.05;100.00
10470;BME280;5282;47.052;15.458;2023-07-30T10:34:10;97230.59;;;25.97;100.00
10470;BME280;5282;47.052;15.458;2023-07-30T10:36:41;97231.38;;;25.62;100.00
10470;BME280;5282;47.052;15.458;2023-07-30T10:39:14;97230.09;;;26.21;100.00
10470;BME280;5282;47.052;15.458;2023-07-30T10:41:44;97231.16;;;26.30;100.00
10470;BME280;5282;47.052;15.458;2023-07-30T10:44:22;97227.31;;;26.26;100.00
10470;BME280;5282;47.052;15.458;2023-07-30T10:46:49;97229.25;;;26.10;100.00
10470;BME280;5282;47.052;15.458;2023-07-30T10:49:16;97236.66;;;25.84;100.00
10470;BME280;5282;47.052;15.458;2023-07-30T10:51:44;97238.00;;;25.66;100.00
10470;BME280;5282;47.052;15.458;2023-07-30T10:54:10;97240.34;;;25.31;100.00
10470;BME280;5282;47.052;15.458;2023-07-30T10:56:38;97236.03;;;25.40;100.00
10470;BME280;5282;47.052;15.458;2023-07-30T10:59:07;97235.63;;;25.16;100.00
10470;BME280;5282;47.052;15.458;2023-07-30T11:01:38;97229.84;;;25.23;100.00
10470;BME280;5282;47.052;15.458;2023-07-30T11:04:09;97226.47;;;24.95;100.00
10470;BME280;5282;47.052;15.458;2023-07-30T11:06:36;97217.31;;;24.79;100.00
10470;BME280;5282;47.052;15.458;2023-07-30T11:09:03;97219.50;;;24.77;100.00
10470;BME280;5282;47.052;15.458;2023-07-30T11:11:31;97214.59;;;24.89;100.00
10470;BME280;5282;47.052;15.458;2023-07-30T11:13:58;97214.06;;;24.98;100.00
10470;BME280;5282;47.052;15.458;2023-07-30T11:16:26;97211.44;;;25.34;100.00
10470;BME280;5282;47.052;15.458;2023-07-30T11:18:53;97204.41;;;25.79;100.00
10470;BME280;5282;47.052;15.458;2023-07-30T11:21:20;97203.59;;;26.10;100.00
10470;BME280;5282;47.052;15.458;2023-07-30T11:23:47;97202.72;;;26.45;100.00
10470;BME280;5282;47.052;15.458;2023-07-30T11:26:15;97202.38;;;26.73;100.00
10470;BME280;5282;47.052;15.458;2023-07-30T11:28:43;97185.19;;;27.02;100.00
10470;BME280;5282;47.052;15.458;2023-07-30T11:31:13;97178.22;;;27.09;100.00
10470;BME280;5282;47.052;15.458;2023-07-30T11:33:42;97187.13;;;27.01;100.00
10470;BME280;5282;47.052;15.458;2023-07-30T11:36:12;97183.19;;;27.18;100.00
10470;BME280;5282;47.052;15.458;2023-07-30T11:38:40;97179.81;;;27.26;100.00
10470;BME280;5282;47.052;15.458;2023-07-30T11:41:08;97184.28;;;27.17;100.00
10470;BME280;5282;47.052;15.458;2023-07-30T11:43:38;97183.50;;;27.61;100.00
10470;BME280;5282;47.052;15.458;2023-07-30T11:46:12;97182.34;;;27.67;100.00
10470;BME280;5282;47.052;15.458;2023-07-30T11:48:43;97186.88;;;27.87;100.00
10470;BME280;5282;47.052;15.458;2023-07-30T11:51:20;97177.00;;;28.16;100.00
10470;BME280;5282;47.052;15.458;2023-07-30T11:53:49;97178.63;;;28.46;93.39
10470;BME280;5282;47.052;15.458;2023-07-30T11:56:22;97178.28;;;28.29;97.46
10470;BME280;5282;47.052;15.458;2023-07-30T11:58:52;97174.66;;;27.59;93.95
10470;BME280;5282;47.052;15.458;2023-07-30T12:01:19;97164.00;;;27.37;100.00
10470;BME280;5282;47.052;15.458;2023-07-30T12:03:48;97166.19;;;27.40;97.49
10470;BME280;5282;47.052;15.458;2023-07-30T12:06:15;97164.16;;;28.25;84.07
10470;BME280;5282;47.052;15.458;2023-07-30T12:08:42;97161.03;;;28.02;100.00
10470;BME280;5282;47.052;15.458;2023-07-30T12:11:09;97161.06;;;27.68;100.00
10470;BME280;5282;47.052;15.458;2023-07-30T12:13:43;97158.28;;;28.32;100.00
10470;BME280;5282;47.052;15.458;2023-07-30T12:16:11;97154.72;;;28.31;95.24
10470;BME280;5282;47.052;15.458;2023-07-30T12:18:39;97154.59;;;28.42;93.31
10470;BME280;5282;47.052;15.458;2023-07-30T12:21:07;97144.59;;;28.46;86.15
10470;BME280;5282;47.052;15.458;2023-07-30T12:23:37;97152.69;;;28.67;88.63
10470;BME280;5282;47.052;15.458;2023-07-30T12:26:06;97145.47;;;28.66;81.79
10470;BME280;5282;47.052;15.458;2023-07-30T12:28:33;97147.63;;;28.98;97.87
10470;BME280;5282;47.052;15.458;2023-07-30T12:31:00;97144.44;;;29.05;83.23
10470;BME280;5282;47.052;15.458;2023-07-30T12:33:27;97148.31;;;29.28;94.60
10470;BME280;5282;47.052;15.458;2023-07-30T12:35:54;97137.69;;;29.54;88.02
10470;BME280;5282;47.052;15.458;2023-07-30T12:38:22;97142.31;;;29.40;72.06
10470;BME280;5282;47.052;15.458;2023-07-30T12:40:49;97137.06;;;29.19;81.00
10470;BME280;5282;47.052;15.458;2023-07-30T12:43:17;97137.78;;;29.06;76.70
10470;BME280;5282;47.052;15.458;2023-07-30T12:45:46;97132.03;;;29.21;72.75
10470;BME280;5282;47.052;15.458;2023-07-30T12:48:13;97125.94;;;28.81;74.97
10470;BME280;5282;47.052;15.458;2023-07-30T12:50:40;97120.00;;;29.12;68.74
10470;BME280;5282;47.052;15.458;2023-07-30T12:53:09;97129.34;;;28.97;85.54
10470;BME280;5282;47.052;15.458;2023-07-30T12:55:37;97120.00;;;29.12;86.12